createdAt,value
2022-10-09T00:01:04.042Z,7.19
2022-10-09T00:04:23.625Z,7.15
2022-10-09T00:06:03.344Z,7.11
2022-10-09T00:07:43.095Z,7.12
2022-10-09T00:09:22.901Z,7.08
2022-10-09T00:11:02.661Z,7.05
2022-10-09T00:12:42.477Z,7.06
2022-10-09T00:14:22.158Z,7.06
2022-10-09T00:16:01.918Z,7.02
2022-10-09T00:17:41.714Z,7.02
2022-10-09T00:19:21.452Z,7.01
2022-10-09T00:21:01.224Z,7
2022-10-09T00:22:41.086Z,6.99
2022-10-09T00:24:20.768Z,6.98
2022-10-09T00:27:40.273Z,6.92
2022-10-09T00:29:20.024Z,6.9
2022-10-09T00:30:59.781Z,6.9
2022-10-09T00:32:39.689Z,6.87
2022-10-09T00:34:19.320Z,6.85
2022-10-09T00:35:59.124Z,6.83
2022-10-09T00:37:38.855Z,6.81
2022-10-09T00:39:18.645Z,6.8
2022-10-09T00:40:58.394Z,6.8
2022-10-09T00:42:38.180Z,6.81
2022-10-09T00:44:17.992Z,6.76
2022-10-09T00:47:37.433Z,6.73
2022-10-09T00:49:17.205Z,6.71
2022-10-09T00:50:57.001Z,6.7
2022-10-09T00:52:36.877Z,6.69
2022-10-09T00:54:16.503Z,6.66
2022-10-09T00:55:56.255Z,6.65
2022-10-09T00:57:36.015Z,6.65
2022-10-09T00:59:15.775Z,6.65
2022-10-09T01:00:55.646Z,6.62
2022-10-09T01:02:35.361Z,6.62
2022-10-09T01:04:15.073Z,6.6
2022-10-09T01:05:54.837Z,6.59
2022-10-09T01:07:34.594Z,6.56
2022-10-09T01:09:14.359Z,6.57
2022-10-09T01:10:54.170Z,6.57
2022-10-09T01:12:33.891Z,6.56
2022-10-09T01:14:13.654Z,6.56
2022-10-09T01:15:53.410Z,6.56
2022-10-09T01:17:33.174Z,6.55
2022-10-09T01:19:12.973Z,6.52
2022-10-09T01:20:52.717Z,6.53
2022-10-09T01:22:32.489Z,6.52
2022-10-09T01:24:12.237Z,6.49
2022-10-09T01:25:51.995Z,6.47
2022-10-09T01:27:31.753Z,6.47
2022-10-09T01:29:11.527Z,6.46
2022-10-09T01:30:51.283Z,6.43
2022-10-09T01:32:31.076Z,6.49
2022-10-09T01:34:10.847Z,6.42
2022-10-09T01:35:50.598Z,6.41
2022-10-09T01:37:30.369Z,6.38
2022-10-09T01:39:10.105Z,6.37
2022-10-09T01:42:29.636Z,6.32
2022-10-09T01:44:09.429Z,6.31
2022-10-09T01:45:49.252Z,6.29
2022-10-09T01:47:28.943Z,6.27
2022-10-09T01:49:08.690Z,6.26
2022-10-09T01:50:48.464Z,6.23
2022-10-09T01:52:28.227Z,6.24
2022-10-09T01:54:07.988Z,6.24
2022-10-09T01:55:47.761Z,6.23
2022-10-09T01:57:27.518Z,6.2
2022-10-09T01:59:07.339Z,6.18
2022-10-09T02:00:47.029Z,6.18
2022-10-09T02:02:26.793Z,6.15
2022-10-09T02:04:06.577Z,6.15
2022-10-09T02:05:46.333Z,6.15
2022-10-09T02:07:26.130Z,6.14
2022-10-09T02:09:05.845Z,6.17
2022-10-09T02:10:45.622Z,6.13
2022-10-09T02:12:25.379Z,6.16
2022-10-09T02:14:05.144Z,6.14
2022-10-09T02:15:44.955Z,6.13
2022-10-09T02:17:24.681Z,6.12
2022-10-09T02:19:04.437Z,6.11
2022-10-09T02:20:44.217Z,6.08
2022-10-09T02:22:23.987Z,6.07
2022-10-09T02:24:03.789Z,6.04
2022-10-09T02:25:43.501Z,6.02
2022-10-09T02:27:23.302Z,6
2022-10-09T02:30:42.820Z,5.98
2022-10-09T02:32:22.570Z,5.96
2022-10-09T02:35:42.079Z,5.93
2022-10-09T02:37:21.893Z,5.91
2022-10-09T02:39:01.634Z,5.88
2022-10-09T02:40:41.367Z,5.87
2022-10-09T02:42:21.177Z,5.85
2022-10-09T02:44:00.942Z,5.83
2022-10-09T02:45:40.653Z,5.83
2022-10-09T02:47:20.438Z,5.81
2022-10-09T02:49:00.220Z,5.8
2022-10-09T02:52:19.726Z,5.79
2022-10-09T02:53:59.505Z,5.77
2022-10-09T02:55:39.288Z,5.75
2022-10-09T02:57:19.006Z,5.73
2022-10-09T02:58:58.782Z,5.72
2022-10-09T03:00:38.580Z,5.71
2022-10-09T03:02:18.303Z,5.7
2022-10-09T03:03:58.055Z,5.68
2022-10-09T03:10:37.155Z,5.63
2022-10-09T03:12:16.907Z,5.63
2022-10-09T03:13:56.738Z,5.61
2022-10-09T03:15:36.414Z,5.62
2022-10-09T03:17:16.171Z,5.62
2022-10-09T03:18:55.971Z,5.63
2022-10-09T03:20:35.697Z,5.59
2022-10-09T03:22:15.470Z,5.6
2022-10-09T03:23:55.279Z,5.6
2022-10-09T03:25:35.013Z,5.58
2022-10-09T03:27:14.765Z,5.63
2022-10-09T03:28:54.510Z,5.6
2022-10-09T03:30:34.294Z,5.59
2022-10-09T03:32:14.050Z,5.58
2022-10-09T03:33:53.822Z,5.56
2022-10-09T03:35:33.586Z,5.58
2022-10-09T03:37:13.345Z,5.48
2022-10-09T03:38:53.118Z,5.54
2022-10-09T03:42:12.667Z,5.54
2022-10-09T03:43:52.410Z,5.48
2022-10-09T03:45:32.171Z,5.47
2022-10-09T03:47:11.955Z,5.45
2022-10-09T03:50:31.450Z,5.42
2022-10-09T03:52:11.230Z,5.41
2022-10-09T03:53:51.006Z,5.38
2022-10-09T03:55:30.743Z,5.37
2022-10-09T03:58:50.288Z,5.32
2022-10-09T04:00:30.046Z,5.32
2022-10-09T04:02:09.804Z,5.2
2022-10-09T04:03:49.569Z,5.26
2022-10-09T04:05:29.334Z,5.26
2022-10-09T04:07:09.191Z,5.24
2022-10-09T04:08:48.881Z,5.23
2022-10-09T04:10:28.621Z,5.21
2022-10-09T04:12:08.404Z,5.2
2022-10-09T04:13:48.149Z,5.2
2022-10-09T04:15:27.926Z,5.17
2022-10-09T04:17:07.678Z,5.18
2022-10-09T04:18:47.459Z,5.18
2022-10-09T04:20:27.193Z,5.16
2022-10-09T04:22:07.015Z,5.12
2022-10-09T04:23:46.730Z,5.12
2022-10-09T04:25:26.484Z,5.13
2022-10-09T04:27:06.255Z,5.13
2022-10-09T04:28:46.017Z,5.11
2022-10-09T04:30:25.794Z,5.09
2022-10-09T04:32:05.541Z,5.06
2022-10-09T04:33:45.310Z,5.08
2022-10-09T04:35:25.083Z,5.06
2022-10-09T04:37:04.859Z,5.04
2022-10-09T04:38:44.601Z,5.03
2022-10-09T04:40:24.382Z,5.01
2022-10-09T04:42:04.120Z,5
2022-10-09T04:43:43.886Z,4.9
2022-10-09T04:47:03.438Z,4.96
2022-10-09T04:48:43.203Z,4.96
2022-10-09T04:50:22.953Z,4.96
2022-10-09T04:52:02.708Z,4.96
2022-10-09T04:53:42.487Z,4.92
2022-10-09T04:55:22.246Z,4.91
2022-10-09T04:57:02.004Z,4.9
2022-10-09T04:58:41.767Z,4.89
2022-10-09T05:00:21.546Z,4.86
2022-10-09T05:02:01.294Z,4.86
2022-10-09T05:05:20.828Z,4.84
2022-10-09T05:07:00.596Z,4.8
2022-10-09T05:08:40.367Z,4.83
2022-10-09T05:10:20.122Z,4.81
2022-10-09T05:11:59.932Z,4.81
2022-10-09T05:13:39.642Z,4.76
2022-10-09T05:16:59.161Z,4.77
2022-10-09T05:18:38.963Z,4.76
2022-10-09T05:21:58.475Z,4.73
2022-10-09T05:23:38.254Z,4.69
2022-10-09T05:25:18.003Z,4.69
2022-10-09T05:26:57.756Z,4.67
2022-10-09T05:30:17.359Z,4.64
2022-10-09T05:31:57.045Z,4.63
2022-10-09T05:33:36.865Z,4.61
2022-10-09T05:35:16.577Z,4.59
2022-10-09T05:38:36.158Z,4.56
2022-10-09T05:40:15.853Z,4.56
2022-10-09T05:41:55.636Z,4.59
2022-10-09T05:43:35.401Z,4.54
2022-10-09T05:45:15.191Z,4.53
2022-10-09T05:46:54.963Z,4.52
2022-10-09T05:48:34.684Z,4.5
2022-10-09T05:50:14.438Z,4.52
2022-10-09T05:51:54.247Z,4.54
2022-10-09T05:56:53.499Z,4.52
2022-10-09T05:58:33.258Z,4.54
2022-10-09T06:00:13.040Z,4.56
2022-10-09T06:01:52.802Z,4.53
2022-10-09T06:03:32.598Z,4.52
2022-10-09T06:05:12.327Z,4.55
2022-10-09T06:06:52.147Z,4.57
2022-10-09T06:08:31.841Z,4.61
2022-10-09T06:13:31.150Z,4.66
2022-10-09T06:16:50.680Z,4.71
2022-10-09T06:20:10.231Z,4.73
2022-10-09T06:21:49.979Z,4.76
2022-10-09T06:23:29.847Z,4.78
2022-10-09T06:25:09.535Z,4.81
2022-10-09T06:28:29.019Z,4.83
2022-10-09T06:30:08.770Z,4.87
2022-10-09T06:31:48.541Z,4.9
2022-10-09T06:33:28.350Z,4.92
2022-10-09T06:35:08.175Z,4.92
2022-10-09T06:36:47.841Z,4.96
2022-10-09T06:38:27.597Z,5.01
2022-10-09T06:40:07.469Z,5.06
2022-10-09T06:41:47.177Z,5.05
2022-10-09T06:46:46.487Z,5.13
2022-10-09T06:48:26.189Z,5.2
2022-10-09T06:50:05.975Z,5.25
2022-10-09T06:51:45.736Z,5.27
2022-10-09T06:53:25.528Z,5.38
2022-10-09T06:55:05.258Z,5.36
2022-10-09T06:56:45.061Z,5.4
2022-10-09T07:01:44.295Z,5.5
2022-10-09T07:03:24.098Z,5.55
2022-10-09T07:06:43.581Z,5.62
2022-10-09T07:10:03.125Z,5.68
2022-10-09T07:13:22.726Z,5.76
2022-10-09T07:15:02.445Z,5.8
2022-10-09T07:16:42.205Z,5.86
2022-10-09T07:20:01.710Z,5.94
2022-10-09T07:21:41.465Z,5.98
2022-10-09T07:23:21.305Z,6.04
2022-10-09T07:25:01.103Z,6.07
2022-10-09T07:26:40.775Z,6.18
2022-10-09T07:30:00.293Z,6.22
2022-10-09T07:31:40.070Z,6.25
2022-10-09T07:33:19.932Z,6.33
2022-10-09T07:36:39.339Z,6.45
2022-10-09T07:39:58.918Z,6.58
2022-10-09T07:41:38.681Z,6.62
2022-10-09T07:43:18.408Z,6.71
2022-10-09T07:44:58.182Z,6.72
2022-10-09T07:46:37.965Z,6.79
2022-10-09T07:51:37.234Z,6.91
2022-10-09T07:53:17.025Z,7.03
2022-10-09T07:54:56.832Z,7.05
2022-10-09T07:56:36.494Z,7.09
2022-10-09T08:01:35.876Z,7.24
2022-10-09T08:03:15.582Z,7.3
2022-10-09T08:04:55.327Z,7.35
2022-10-09T08:09:54.624Z,7.55
2022-10-09T08:11:34.394Z,7.59
2022-10-09T08:13:14.155Z,7.64
2022-10-09T08:14:53.913Z,7.7
2022-10-09T08:16:33.706Z,7.77
2022-10-09T08:18:13.447Z,7.79
2022-10-09T08:19:53.191Z,7.85
2022-10-09T08:21:33.034Z,7.87
2022-10-09T08:23:12.734Z,7.95
2022-10-09T08:24:52.505Z,7.98
2022-10-09T08:26:32.269Z,8.04
2022-10-09T08:28:12.008Z,8.03
2022-10-09T08:29:51.821Z,8.14
2022-10-09T08:31:31.553Z,8.18
2022-10-09T08:33:11.431Z,8.26
2022-10-09T08:34:51.116Z,8.37
2022-10-09T08:36:30.888Z,8.42
2022-10-09T08:38:10.629Z,8.52
2022-10-09T08:39:50.411Z,8.58
2022-10-09T08:41:30.131Z,8.62
2022-10-09T08:43:09.895Z,8.67
2022-10-09T08:46:29.412Z,8.78
2022-10-09T08:48:09.187Z,8.85
2022-10-09T08:49:48.999Z,8.92
2022-10-09T08:51:28.711Z,8.97
2022-10-09T08:53:08.590Z,9.05
2022-10-09T08:56:28.004Z,9.14
2022-10-09T08:59:47.586Z,9.31
2022-10-09T09:01:27.322Z,9.38
2022-10-09T09:03:07.086Z,9.43
2022-10-09T09:06:26.607Z,9.55
2022-10-09T09:08:06.400Z,9.64
2022-10-09T09:09:46.211Z,9.71
2022-10-09T09:11:25.892Z,9.79
2022-10-09T09:13:05.766Z,9.85
2022-10-09T09:14:45.520Z,9.95
2022-10-09T09:16:25.173Z,10.04
2022-10-09T09:18:04.977Z,10.12
2022-10-09T09:19:44.735Z,10.22
2022-10-09T09:21:24.503Z,10.27
2022-10-09T09:23:04.229Z,10.33
2022-10-09T09:26:23.895Z,10.47
2022-10-09T09:28:03.616Z,10.58
2022-10-09T09:31:23.075Z,10.69
2022-10-09T09:33:02.829Z,10.76
2022-10-09T09:34:42.659Z,10.8
2022-10-09T09:36:22.352Z,10.87
2022-10-09T09:38:02.167Z,10.96
2022-10-09T09:39:41.903Z,11.05
2022-10-09T09:41:21.699Z,11.09
2022-10-09T09:43:01.461Z,11.16
2022-10-09T09:44:41.165Z,11.24
2022-10-09T09:46:20.917Z,11.31
2022-10-09T09:49:40.522Z,11.45
2022-10-09T09:51:20.210Z,11.55
2022-10-09T09:52:59.976Z,11.64
2022-10-09T09:56:19.497Z,11.78
2022-10-09T09:59:39.025Z,11.96
2022-10-09T10:01:18.787Z,12
2022-10-09T10:02:58.553Z,12.09
2022-10-09T10:06:18.098Z,12.23
2022-10-09T10:07:57.848Z,12.32
2022-10-09T10:09:37.617Z,12.38
2022-10-09T10:11:17.379Z,12.43
2022-10-09T10:12:57.255Z,12.48
2022-10-09T10:14:36.966Z,12.55
2022-10-09T10:16:16.676Z,12.62
2022-10-09T10:17:56.431Z,12.67
2022-10-09T10:19:36.219Z,12.7
2022-10-09T10:21:15.974Z,12.77
2022-10-09T10:22:55.865Z,12.82
2022-10-09T10:24:35.531Z,12.89
2022-10-09T10:26:15.330Z,12.94
2022-10-09T10:29:34.789Z,13.04
2022-10-09T10:31:14.569Z,13.09
2022-10-09T10:32:54.351Z,13.13
2022-10-09T10:34:34.089Z,13.19
2022-10-09T10:36:13.845Z,13.24
2022-10-09T10:39:33.380Z,13.34
2022-10-09T10:41:13.143Z,13.38
2022-10-09T10:42:52.928Z,13.42
2022-10-09T10:46:12.426Z,13.56
2022-10-09T10:47:52.195Z,13.59
2022-10-09T10:49:31.983Z,13.67
2022-10-09T10:51:11.779Z,13.73
2022-10-09T10:52:51.532Z,13.75
2022-10-09T10:56:11.012Z,13.76
2022-10-09T10:57:50.832Z,13.78
2022-10-09T10:59:30.533Z,13.83
2022-10-09T11:01:10.400Z,13.9
2022-10-09T11:02:50.188Z,13.99
2022-10-09T11:06:09.594Z,14.13
2022-10-09T11:07:49.383Z,14.13
2022-10-09T11:09:29.132Z,14.16
2022-10-09T11:11:08.888Z,14.19
2022-10-09T11:12:48.717Z,14.22
2022-10-09T11:16:08.172Z,14.31
2022-10-09T11:19:27.733Z,14.33
2022-10-09T11:21:07.474Z,14.34
2022-10-09T11:22:47.233Z,14.34
2022-10-09T11:24:27.090Z,14.35
2022-10-09T11:26:06.764Z,14.45
2022-10-09T11:27:46.573Z,14.53
2022-10-09T11:29:26.313Z,14.55
2022-10-09T11:31:06.060Z,14.63
2022-10-09T11:32:45.937Z,14.72
2022-10-09T11:34:25.599Z,14.78
2022-10-09T11:36:05.388Z,14.82
2022-10-09T11:37:45.204Z,14.86
2022-10-09T11:39:24.882Z,14.88
2022-10-09T11:41:04.651Z,14.87
2022-10-09T11:42:44.401Z,14.85
2022-10-09T11:44:24.178Z,14.8
2022-10-09T11:46:03.917Z,14.85
2022-10-09T11:49:23.488Z,14.95
2022-10-09T11:52:42.987Z,15.04
2022-10-09T11:56:02.512Z,15.11
2022-10-09T11:57:42.270Z,15.24
2022-10-09T11:59:22.110Z,15.2
2022-10-09T12:01:01.787Z,15.24
2022-10-09T12:02:41.571Z,15.29
2022-10-09T12:04:21.360Z,15.33
2022-10-09T12:06:01.123Z,15.35
2022-10-09T12:09:20.621Z,15.35
2022-10-09T12:11:00.401Z,15.28
2022-10-09T12:12:40.157Z,15.2
2022-10-09T12:14:19.917Z,15.19
2022-10-09T12:15:59.682Z,15.16
2022-10-09T12:17:39.500Z,15.2
2022-10-09T12:19:19.203Z,15.22
2022-10-09T12:20:58.978Z,15.36
2022-10-09T12:22:38.852Z,15.4
2022-10-09T12:25:58.362Z,15.56
2022-10-09T12:27:38.023Z,15.66
2022-10-09T12:30:57.560Z,15.87
2022-10-09T12:32:37.423Z,15.96
2022-10-09T12:34:17.202Z,16
2022-10-09T12:35:56.865Z,16.04
2022-10-09T12:37:36.652Z,16.1
2022-10-09T12:39:16.390Z,16.12
2022-10-09T12:40:56.131Z,16.1
2022-10-09T12:42:35.905Z,16.11
2022-10-09T12:45:55.455Z,16.14
2022-10-09T12:47:35.210Z,16.17
2022-10-09T12:49:14.963Z,16.17
2022-10-09T12:50:54.799Z,16.17
2022-10-09T12:52:34.571Z,16.2
2022-10-09T12:54:14.334Z,16.19
2022-10-09T12:55:54.019Z,16.16
2022-10-09T12:57:33.843Z,16.14
2022-10-09T12:59:13.549Z,16.12
2022-10-09T13:00:53.309Z,16.08
2022-10-09T13:02:33.101Z,16.04
2022-10-09T13:05:52.623Z,16.01
2022-10-09T13:09:12.121Z,15.95
2022-10-09T13:10:51.891Z,15.88
2022-10-09T13:12:31.654Z,15.83
2022-10-09T13:14:11.417Z,15.78
2022-10-09T13:15:51.185Z,15.72
2022-10-09T13:17:30.982Z,15.68
2022-10-09T13:19:10.708Z,15.72
2022-10-09T13:20:50.486Z,15.75
2022-10-09T13:22:30.259Z,15.79
2022-10-09T13:25:49.785Z,15.89
2022-10-09T13:27:29.562Z,15.93
2022-10-09T13:29:09.338Z,15.97
2022-10-09T13:30:49.073Z,15.98
2022-10-09T13:32:28.909Z,16.02
2022-10-09T13:34:08.622Z,16.07
2022-10-09T13:35:48.347Z,16.12
2022-10-09T13:37:28.111Z,16.2
2022-10-09T13:39:07.890Z,16.2
2022-10-09T13:40:47.630Z,16.17
2022-10-09T13:42:27.513Z,16.1
2022-10-09T13:44:07.168Z,16.12
2022-10-09T13:45:46.932Z,16.2
2022-10-09T13:47:26.723Z,16.25
2022-10-09T13:49:06.451Z,16.34
2022-10-09T13:50:46.214Z,16.37
2022-10-09T13:52:26.138Z,16.37
2022-10-09T13:55:45.508Z,16.43
2022-10-09T13:57:25.276Z,16.49
2022-10-09T13:59:05.041Z,16.44
2022-10-09T14:00:44.914Z,16.43
2022-10-09T14:02:24.630Z,16.43
2022-10-09T14:04:04.335Z,16.43
2022-10-09T14:05:44.136Z,16.43
2022-10-09T14:09:03.629Z,16.56
2022-10-09T14:10:43.380Z,16.45
2022-10-09T14:12:23.147Z,16.41
2022-10-09T14:15:42.676Z,16.29
2022-10-09T14:17:22.453Z,16.4
2022-10-09T14:19:02.222Z,16.34
2022-10-09T14:20:41.969Z,16.31
2022-10-09T14:22:21.735Z,16.27
2022-10-09T14:25:41.270Z,16.19
2022-10-09T14:29:00.797Z,16.11
2022-10-09T14:30:40.557Z,16.08
2022-10-09T14:32:20.320Z,16.04
2022-10-09T14:35:39.854Z,16.03
2022-10-09T14:37:19.606Z,16.03
2022-10-09T14:38:59.394Z,16.03
2022-10-09T14:40:39.151Z,16.04
2022-10-09T14:42:18.915Z,16.07
2022-10-09T14:43:58.680Z,16.1
2022-10-09T14:45:38.425Z,16.14
2022-10-09T14:47:18.191Z,16.15
2022-10-09T14:48:57.953Z,16.16
2022-10-09T14:50:37.721Z,16.17
2022-10-09T14:52:17.494Z,16.14
2022-10-09T14:53:57.264Z,16.15
2022-10-09T14:55:37.024Z,16.11
2022-10-09T14:57:16.784Z,16.1
2022-10-09T14:58:56.554Z,16.08
2022-10-09T15:02:16.074Z,16.07
2022-10-09T15:03:55.841Z,16.04
2022-10-09T15:05:35.608Z,16.02
2022-10-09T15:07:15.369Z,15.98
2022-10-09T15:08:55.121Z,15.91
2022-10-09T15:10:34.896Z,15.87
2022-10-09T15:12:14.651Z,15.93
2022-10-09T15:15:34.202Z,15.73
2022-10-09T15:17:13.941Z,15.7
2022-10-09T15:18:53.719Z,15.63
2022-10-09T15:20:33.483Z,15.6
2022-10-09T15:22:13.238Z,15.56
2022-10-09T15:25:32.779Z,15.46
2022-10-09T15:27:12.541Z,15.42
2022-10-09T15:28:52.293Z,15.49
2022-10-09T15:30:32.060Z,15.32
2022-10-09T15:32:11.829Z,15.32
2022-10-09T15:35:31.348Z,15.23
2022-10-09T15:38:50.906Z,15.11
2022-10-09T15:40:30.637Z,15.07
2022-10-09T15:42:10.399Z,15.03
2022-10-09T15:43:50.171Z,15
2022-10-09T15:45:29.941Z,14.93
2022-10-09T15:47:09.719Z,14.88
2022-10-09T15:48:49.460Z,14.85
2022-10-09T15:50:29.232Z,14.85
2022-10-09T15:52:09.002Z,14.79
2022-10-09T15:55:28.522Z,14.68
2022-10-09T15:58:48.055Z,14.57
2022-10-09T16:00:27.816Z,14.53
2022-10-09T16:02:07.586Z,14.47
2022-10-09T16:03:47.350Z,14.43
2022-10-09T16:05:27.101Z,14.39
2022-10-09T16:08:46.636Z,14.26
2022-10-09T16:10:26.399Z,14.22
2022-10-09T16:12:06.164Z,14.21
2022-10-09T16:15:25.676Z,14.09
2022-10-09T16:18:45.214Z,14.04
2022-10-09T16:20:24.990Z,13.97
2022-10-09T16:22:04.764Z,13.93
2022-10-09T16:23:44.503Z,13.88
2022-10-09T16:25:24.271Z,13.84
2022-10-09T16:27:04.043Z,13.79
2022-10-09T16:28:43.793Z,13.73
2022-10-09T16:30:23.569Z,13.71
2022-10-09T16:32:03.333Z,13.67
2022-10-09T16:33:43.081Z,13.61
2022-10-09T16:35:22.847Z,13.55
2022-10-09T16:37:02.624Z,13.52
2022-10-09T16:38:42.377Z,13.46
2022-10-09T16:40:22.182Z,13.41
2022-10-09T16:42:01.917Z,13.34
2022-10-09T16:43:41.677Z,13.32
2022-10-09T16:45:21.433Z,13.3
2022-10-09T16:47:01.210Z,13.25
2022-10-09T16:48:40.973Z,13.21
2022-10-09T16:52:00.498Z,13.15
2022-10-09T16:53:40.255Z,13.1
2022-10-09T16:55:20.012Z,13.07
2022-10-09T16:56:59.791Z,13.02
2022-10-09T16:58:39.541Z,12.99
2022-10-09T17:00:19.314Z,12.96
2022-10-09T17:01:59.070Z,12.95
2022-10-09T17:05:18.606Z,12.85
2022-10-09T17:06:58.369Z,12.81
2022-10-09T17:08:38.160Z,12.8
2022-10-09T17:10:17.890Z,12.75
2022-10-09T17:11:57.666Z,12.72
2022-10-09T17:13:37.489Z,12.67
2022-10-09T17:15:17.184Z,12.66
2022-10-09T17:18:36.727Z,12.63
2022-10-09T17:20:16.483Z,12.59
2022-10-09T17:21:56.271Z,12.57
2022-10-09T17:25:15.783Z,12.52
2022-10-09T17:26:55.541Z,12.49
2022-10-09T17:28:35.288Z,12.51
2022-10-09T17:30:15.067Z,12.43
2022-10-09T17:31:54.825Z,12.38
2022-10-09T17:35:14.376Z,12.34
2022-10-09T17:36:54.118Z,12.31
2022-10-09T17:38:33.879Z,12.26
2022-10-09T17:40:13.642Z,12.22
2022-10-09T17:41:53.404Z,12.19
2022-10-09T17:45:12.937Z,12.16
2022-10-09T17:48:32.470Z,12.09
2022-10-09T17:50:12.235Z,12.04
2022-10-09T17:51:52.018Z,12.03
2022-10-09T17:53:31.766Z,12.01
2022-10-09T17:55:11.511Z,11.99
2022-10-09T17:58:31.053Z,11.9
2022-10-09T18:00:10.814Z,11.88
2022-10-09T18:01:50.584Z,11.82
2022-10-09T18:03:30.347Z,11.8
2022-10-09T18:05:10.114Z,11.75
2022-10-09T18:06:49.900Z,11.71
2022-10-09T18:08:29.624Z,11.69
2022-10-09T18:10:09.406Z,11.65
2022-10-09T18:11:49.155Z,11.6
2022-10-09T18:13:28.924Z,11.57
2022-10-09T18:15:08.681Z,11.51
2022-10-09T18:18:28.231Z,11.44
2022-10-09T18:20:07.989Z,11.41
2022-10-09T18:21:47.748Z,11.41
2022-10-09T18:25:07.284Z,11.28
2022-10-09T18:28:26.791Z,11.2
2022-10-09T18:31:46.382Z,11.13
2022-10-09T18:33:26.100Z,11.11
2022-10-09T18:35:05.861Z,11.07
2022-10-09T18:38:25.388Z,11
2022-10-09T18:40:05.153Z,10.96
2022-10-09T18:41:44.914Z,10.94
2022-10-09T18:45:04.447Z,10.87
2022-10-09T18:46:44.211Z,10.86
2022-10-09T18:48:23.966Z,10.83
2022-10-09T18:50:03.726Z,10.8
2022-10-09T18:51:43.525Z,10.76
2022-10-09T18:53:23.250Z,10.75
2022-10-09T18:55:03.017Z,10.72
2022-10-09T18:56:42.774Z,10.7
2022-10-09T18:58:22.575Z,10.66
2022-10-09T19:00:02.317Z,10.6
2022-10-09T19:01:42.077Z,10.59
2022-10-09T19:03:21.862Z,10.56
2022-10-09T19:05:01.663Z,10.52
2022-10-09T19:06:41.375Z,10.51
2022-10-09T19:08:21.126Z,10.48
2022-10-09T19:10:00.941Z,10.45
2022-10-09T19:13:20.430Z,10.41
2022-10-09T19:15:00.195Z,10.37
2022-10-09T19:18:19.738Z,10.32
2022-10-09T19:19:59.480Z,10.27
2022-10-09T19:21:39.248Z,10.26
2022-10-09T19:23:19.016Z,10.22
2022-10-09T19:24:58.784Z,10.18
2022-10-09T19:28:18.296Z,10.14
2022-10-09T19:29:58.064Z,10.13
2022-10-09T19:31:37.838Z,10.1
2022-10-09T19:33:17.585Z,10.08
2022-10-09T19:34:57.347Z,10.06
2022-10-09T19:38:16.885Z,10
2022-10-09T19:41:36.400Z,9.93
2022-10-09T19:43:16.174Z,9.93
2022-10-09T19:44:55.929Z,9.88
2022-10-09T19:46:35.693Z,9.85
2022-10-09T19:48:15.466Z,9.84
2022-10-09T19:49:55.223Z,9.81
2022-10-09T19:51:35.003Z,9.8
2022-10-09T19:53:14.786Z,9.77
2022-10-09T19:54:54.518Z,9.75
2022-10-09T19:56:34.277Z,9.72
2022-10-09T19:58:14.060Z,9.68
2022-10-09T19:59:53.837Z,9.68
2022-10-09T20:03:13.343Z,9.62
2022-10-09T20:04:53.106Z,9.6
2022-10-09T20:08:12.634Z,9.56
2022-10-09T20:09:52.397Z,9.54
2022-10-09T20:11:32.163Z,9.52
2022-10-09T20:13:11.929Z,9.5
2022-10-09T20:14:51.687Z,9.47
2022-10-09T20:18:11.214Z,9.45
2022-10-09T20:19:50.973Z,9.43
2022-10-09T20:21:30.742Z,9.43
2022-10-09T20:23:10.497Z,9.41
2022-10-09T20:24:50.277Z,9.38
2022-10-09T20:26:30.032Z,9.38
2022-10-09T20:28:09.805Z,9.35
2022-10-09T20:29:49.566Z,9.35
2022-10-09T20:31:29.320Z,9.35
2022-10-09T20:36:28.614Z,9.32
2022-10-09T20:38:08.365Z,9.29
2022-10-09T20:39:48.141Z,9.28
2022-10-09T20:41:27.916Z,9.26
2022-10-09T20:43:07.660Z,9.25
2022-10-09T20:44:47.431Z,9.22
2022-10-09T20:46:27.202Z,9.2
2022-10-09T20:48:06.962Z,9.1
2022-10-09T20:49:46.720Z,9.16
2022-10-09T20:51:26.494Z,9.13
2022-10-09T20:53:06.255Z,9.1
2022-10-09T20:54:46.029Z,9.09
2022-10-09T20:56:25.786Z,9.06
2022-10-09T20:58:05.540Z,9.08
2022-10-09T20:59:45.329Z,9.05
2022-10-09T21:01:25.075Z,9.02
2022-10-09T21:03:04.830Z,9.01
2022-10-09T21:04:44.612Z,8.97
2022-10-09T21:09:43.892Z,8.92
2022-10-09T21:11:23.676Z,8.91
2022-10-09T21:13:03.418Z,8.89
2022-10-09T21:14:43.177Z,8.88
2022-10-09T21:18:02.712Z,8.81
2022-10-09T21:19:42.472Z,8.79
2022-10-09T21:21:22.239Z,8.77
2022-10-09T21:23:02.006Z,8.75
2022-10-09T21:24:41.784Z,8.72
2022-10-09T21:26:21.525Z,8.7
2022-10-09T21:28:01.287Z,8.67
2022-10-09T21:29:41.069Z,8.66
2022-10-09T21:33:00.588Z,8.64
2022-10-09T21:34:40.347Z,8.63
2022-10-09T21:36:20.118Z,8.63
2022-10-09T21:37:59.878Z,8.6
2022-10-09T21:39:39.650Z,8.59
2022-10-09T21:41:19.409Z,8.55
2022-10-09T21:42:59.165Z,8.54
2022-10-09T21:44:38.951Z,8.51
2022-10-09T21:47:58.451Z,8.47
2022-10-09T21:49:38.217Z,8.45
2022-10-09T21:51:17.995Z,8.42
2022-10-09T21:52:57.747Z,8.39
2022-10-09T21:54:37.533Z,8.35
2022-10-09T21:56:17.277Z,8.35
2022-10-09T21:57:57.036Z,8.32
2022-10-09T21:59:36.834Z,8.3
2022-10-09T22:01:16.576Z,8.27
2022-10-09T22:02:56.331Z,8.26
2022-10-09T22:04:36.095Z,8.24
2022-10-09T22:06:15.862Z,8.25
2022-10-09T22:07:55.631Z,8.21
2022-10-09T22:09:35.398Z,8.18
2022-10-09T22:11:15.149Z,8.16
2022-10-09T22:12:54.931Z,8.14
2022-10-09T22:14:34.690Z,8.14
2022-10-09T22:17:54.205Z,8.12
2022-10-09T22:19:33.985Z,8.1
2022-10-09T22:21:13.751Z,8.08
2022-10-09T22:22:53.500Z,8.07
2022-10-09T22:24:33.271Z,8.05
2022-10-09T22:27:52.797Z,8.03
2022-10-09T22:29:32.544Z,8.02
2022-10-09T22:32:52.112Z,7.98
2022-10-09T22:34:31.837Z,7.96
2022-10-09T22:37:51.385Z,7.95
2022-10-09T22:39:31.146Z,7.94
2022-10-09T22:41:10.909Z,7.93
2022-10-09T22:42:50.659Z,7.89
2022-10-09T22:44:30.436Z,7.87
2022-10-09T22:47:49.955Z,7.84
2022-10-09T22:49:29.713Z,7.82
2022-10-09T22:51:09.492Z,7.81
2022-10-09T22:52:49.254Z,7.79
2022-10-09T22:54:29.015Z,7.78
2022-10-09T22:57:48.537Z,7.76
2022-10-09T22:59:28.303Z,7.74
2022-10-09T23:01:08.067Z,7.73
2022-10-09T23:02:47.824Z,7.64
2022-10-09T23:06:07.369Z,7.7
2022-10-09T23:07:47.130Z,7.67
2022-10-09T23:09:26.876Z,7.67
2022-10-09T23:11:06.657Z,7.66
2022-10-09T23:12:46.434Z,7.65
2022-10-09T23:14:26.195Z,7.65
2022-10-09T23:16:05.944Z,7.63
2022-10-09T23:17:45.698Z,7.62
2022-10-09T23:19:25.479Z,7.61
2022-10-09T23:21:05.229Z,7.59
2022-10-09T23:22:45.002Z,7.59
2022-10-09T23:24:24.762Z,7.57
2022-10-09T23:26:04.522Z,7.57
2022-10-09T23:27:44.284Z,7.56
2022-10-09T23:29:24.052Z,7.54
2022-10-09T23:31:03.825Z,7.54
2022-10-09T23:32:43.585Z,7.53
2022-10-09T23:34:23.360Z,7.52
2022-10-09T23:36:03.108Z,7.51
2022-10-09T23:39:22.636Z,7.5
2022-10-09T23:41:02.402Z,7.49
2022-10-09T23:42:42.193Z,7.47
2022-10-09T23:44:21.921Z,7.45
2022-10-09T23:46:01.689Z,7.46
2022-10-09T23:47:41.456Z,7.44
2022-10-09T23:49:21.215Z,7.43
2022-10-09T23:51:00.987Z,7.42
2022-10-09T23:52:40.766Z,7.37
2022-10-09T23:54:20.511Z,7.39
2022-10-09T23:56:00.272Z,7.39
2022-10-09T23:57:40.037Z,7.36
2022-10-09T23:59:19.816Z,7.35
